Time;durP1;ratioP1;P1;durP2;ratioP2;P2;SDS_P1;SDS_P2;PMS_P1;PMS_P2;Temp;Humidity;BMP_temperature;BMP_pressure;BME280_temperature;BME280_humidity;BME280_pressure;Samples;Min_cycle;Max_cycle;Signal;HPM_P1;HPM_P2
2021/04/10 00:00:41;;;;;;;57.23;25.48;;;;;;;-1.59;73.50;101105.45;1667628;85;21663;-72
2021/04/10 00:03:09;;;;;;;60.05;27.55;;;;;;;-1.62;73.83;101102.78;1633058;85;21385;-72
2021/04/10 00:05:39;;;;;;;57.67;25.72;;;;;;;-1.65;73.63;101110.04;1619627;88;21273;-71
2021/04/10 00:08:07;;;;;;;63.60;26.57;;;;;;;-1.69;73.61;101101.73;1668510;85;21651;-70
2021/04/10 00:10:39;;;;;;;62.43;27.90;;;;;;;-1.71;73.64;101113.73;1624008;83;21160;-76
2021/04/10 00:13:08;;;;;;;58.40;26.68;;;;;;;-1.74;73.63;101107.19;1599375;88;21236;-75
2021/04/10 00:15:36;;;;;;;59.10;27.07;;;;;;;-1.76;73.66;101111.44;1649932;86;21384;-75
2021/04/10 00:18:06;;;;;;;55.58;24.15;;;;;;;-1.78;74.09;101105.34;1637598;86;21566;-75
2021/04/10 00:20:34;;;;;;;54.95;24.30;;;;;;;-1.79;74.02;101104.91;1642349;86;21131;-76
2021/04/10 00:23:02;;;;;;;49.63;21.65;;;;;;;-1.81;74.36;101102.69;1644875;86;21220;-77
2021/04/10 00:25:30;;;;;;;47.98;21.62;;;;;;;-1.81;74.16;101106.56;1642510;86;21737;-76
2021/04/10 00:28:10;;;;;;;56.15;26.23;;;;;;;-1.82;74.35;101097.05;1650288;86;21241;-72
2021/04/10 00:30:39;;;;;;;56.70;26.90;;;;;;;-1.86;74.48;101098.68;1637983;86;21228;-72
2021/04/10 00:33:08;;;;;;;59.20;26.90;;;;;;;-1.88;74.47;101099.47;1612016;87;21254;-73
2021/04/10 00:35:36;;;;;;;59.75;26.07;;;;;;;-1.92;74.51;101098.07;1606854;87;21231;-74
2021/04/10 00:38:04;;;;;;;59.50;26.40;;;;;;;-1.93;74.86;101093.75;1604089;88;21188;-74
2021/04/10 00:40:33;;;;;;;58.28;26.33;;;;;;;-1.96;75.03;101098.80;1618499;87;21894;-73
2021/04/10 00:43:02;;;;;;;62.35;27.13;;;;;;;-1.98;75.09;101095.33;1660679;84;21258;-72
2021/04/10 00:45:32;;;;;;;59.15;25.88;;;;;;;-1.98;74.97;101089.27;1663287;84;21245;-71
2021/04/10 00:48:01;;;;;;;53.08;25.80;;;;;;;-2.00;75.02;101095.70;1666107;84;21231;-69
2021/04/10 00:50:30;;;;;;;59.90;25.35;;;;;;;-2.02;74.98;101088.32;1665256;84;21218;-71
2021/04/10 00:53:01;;;;;;;43.40;21.33;;;;;;;-2.03;75.22;101085.27;1650378;84;22609;-71
2021/04/10 00:55:30;;;;;;;51.23;22.37;;;;;;;-2.06;75.16;101090.34;1706467;82;21127;-71
2021/04/10 00:58:00;;;;;;;51.70;20.68;;;;;;;-2.07;75.55;101084.73;1696227;81;21208;-73
2021/04/10 01:00:28;;;;;;;46.60;21.42;;;;;;;-2.06;75.87;101088.19;1729931;81;21596;-73
2021/04/10 01:02:56;;;;;;;51.00;23.73;;;;;;;-2.05;75.94;101093.38;1729856;81;21126;-74
2021/04/10 01:05:25;;;;;;;40.65;19.17;;;;;;;-2.07;75.78;101092.48;1721112;81;21405;-74
2021/04/10 01:07:53;;;;;;;42.25;20.17;;;;;;;-2.08;75.73;101090.71;1729767;81;21243;-76
2021/04/10 01:10:22;;;;;;;48.42;20.97;;;;;;;-2.07;75.92;101096.35;1735836;81;21735;-74
2021/04/10 01:13:04;;;;;;;51.90;23.47;;;;;;;-2.10;76.06;101097.53;1696401;81;21201;-71
2021/04/10 01:15:54;;;;;;;53.23;25.90;;;;;;;-2.12;76.20;101097.89;1683150;84;21194;-72
2021/04/10 01:19:05;;;;;;;54.05;25.68;;;;;;;-2.13;76.44;101102.19;1694223;83;21401;-70
2021/04/10 01:22:01;;;;;;;47.80;20.92;;;;;;;-2.16;76.15;101102.53;1680646;83;21234;-71
2021/04/10 01:24:51;;;;;;;56.45;25.05;;;;;;;-2.17;76.55;101102.05;1710573;83;21186;-70
2021/04/10 01:27:32;;;;;;;;;;;;;;;-2.19;76.84;101106.28;1679405;80;21226;-72
2021/04/10 01:30:16;;;;;;;59.00;26.07;;;;;;;-2.21;76.72;101106.65;1672333;84;20354;-70
2021/04/10 01:33:10;;;;;;;60.60;25.90;;;;;;;-2.25;76.87;101104.83;1645280;86;21467;-72
2021/04/10 01:35:44;;;;;;;47.20;19.30;;;;;;;-2.28;76.57;101099.55;1654714;85;21203;-73
2021/04/10 01:38:15;;;;;;;43.25;18.85;;;;;;;-2.38;77.08;101096.69;1689474;84;21215;-72
2021/04/10 01:40:44;;;;;;;62.70;28.95;;;;;;;-2.29;77.43;101101.69;1666151;84;21251;-72
2021/04/10 01:43:12;;;;;;;54.55;26.25;;;;;;;-2.34;77.72;101098.55;1691167;80;21181;-71
2021/04/10 01:45:41;;;;;;;56.00;26.52;;;;;;;-2.30;77.68;101096.05;1690305;84;21190;-73
2021/04/10 01:48:12;;;;;;;61.35;26.90;;;;;;;-2.29;77.59;101106.84;1687377;84;21176;-74
2021/04/10 01:50:41;;;;;;;63.33;27.65;;;;;;;-2.30;77.89;101103.78;1666109;84;21141;-73
2021/04/10 01:53:10;;;;;;;59.35;24.50;;;;;;;-2.32;77.90;101103.77;1675841;84;21169;-72
2021/04/10 01:55:39;;;;;;;61.83;27.00;;;;;;;-2.33;77.88;101113.18;1650054;85;21234;-71
2021/04/10 01:58:09;;;;;;;57.93;26.50;;;;;;;-2.35;77.84;101112.29;1689682;83;21293;-75
2021/04/10 02:00:38;;;;;;;57.88;25.92;;;;;;;-2.36;77.97;101113.09;1688903;84;21240;-71
2021/04/10 02:03:09;;;;;;;59.73;27.37;;;;;;;-2.39;77.57;101109.14;1689111;84;21248;-72
2021/04/10 02:05:38;;;;;;;60.25;27.45;;;;;;;-2.42;77.60;101107.73;1672668;84;21213;-73
2021/04/10 02:08:09;;;;;;;;;;;;;;;-2.46;77.53;101111.07;1698380;84;21225;-73
2021/04/10 02:10:37;;;;;;;51.60;22.70;;;;;;;-2.49;77.52;101107.51;1675587;84;21256;-73
2021/04/10 02:13:22;;;;;;;53.20;23.57;;;;;;;-2.52;77.45;101116.02;1715768;80;21189;-70
2021/04/10 02:15:51;;;;;;;57.90;27.67;;;;;;;-2.55;77.72;101115.94;1720424;81;21144;-70
2021/04/10 02:18:22;;;;;;;64.77;26.82;;;;;;;-2.56;77.61;101112.45;1737444;80;21227;-72
2021/04/10 02:20:53;;;;;;;59.58;26.97;;;;;;;-2.58;77.55;101118.01;1742813;80;21184;-71
2021/04/10 02:23:21;;;;;;;59.25;27.62;;;;;;;-2.58;77.79;101118.40;1697328;79;25736;-72
2021/04/10 02:25:53;;;;;;;56.18;25.92;;;;;;;-2.56;77.95;101120.20;1682138;84;21162;-73
2021/04/10 02:28:23;;;;;;;54.30;25.95;;;;;;;-2.55;77.80;101117.23;1681728;84;21199;-73
2021/04/10 02:30:51;;;;;;;55.60;25.27;;;;;;;-2.53;78.05;101119.45;1684514;84;21129;-73
2021/04/10 02:33:25;;;;;;;52.70;24.70;;;;;;;-2.52;78.15;101110.87;1643085;86;21118;-71
2021/04/10 02:35:56;;;;;;;41.05;20.02;;;;;;;-2.58;77.95;101104.21;1683108;84;21464;-72
2021/04/10 02:38:27;;;;;;;45.17;19.30;;;;;;;-2.55;77.74;101111.65;1655293;81;21195;-72
2021/04/10 02:41:13;;;;;;;49.15;22.37;;;;;;;-2.56;77.88;101116.75;1635172;87;21240;-70
2021/04/10 02:43:44;;;;;;;48.45;23.25;;;;;;;-2.57;77.94;101120.17;1647571;86;21183;-70
2021/04/10 02:46:14;;;;;;;53.65;24.77;;;;;;;-2.59;77.75;101115.37;1648968;87;21207;-70
2021/04/10 02:48:55;;;;;;;73.07;27.73;;;;;;;-2.58;78.06;101119.69;1648767;87;21633;-71
2021/04/10 02:51:36;;;;;;;56.42;26.12;;;;;;;-2.58;78.70;101118.40;1645480;86;21183;-71
2021/04/10 02:54:06;;;;;;;60.25;25.00;;;;;;;-2.54;79.01;101124.13;1664009;81;21246;-73
2021/04/10 02:56:38;;;;;;;;;;;;;;;-2.54;79.04;101115.97;1680606;85;21198;-73
2021/04/10 02:59:08;;;;;;;35.78;17.70;;;;;;;-2.52;78.96;101124.19;1676426;85;20311;-73
2021/04/10 03:01:37;;;;;;;;;;;;;;;-2.56;78.92;101121.48;1682902;85;21158;-73
2021/04/10 03:04:06;;;;;;;39.73;18.62;;;;;;;-2.58;78.70;101120.59;1662596;85;20554;-73
2021/04/10 03:06:34;;;;;;;44.63;20.85;;;;;;;-2.59;78.64;101124.40;1674891;85;21205;-74
2021/04/10 03:09:04;;;;;;;42.15;19.98;;;;;;;-2.62;78.54;101124.31;1648094;83;21151;-76
2021/04/10 03:11:33;;;;;;;48.65;23.32;;;;;;;-2.62;78.54;101126.89;1670253;83;21999;-76
2021/04/10 03:14:03;;;;;;;42.10;20.80;;;;;;;-2.63;78.45;101120.83;1680371;85;22379;-76
2021/04/10 03:16:35;;;;;;;60.92;25.43;;;;;;;-2.62;78.58;101125.60;1654288;85;21157;-76
2021/04/10 03:19:05;;;;;;;50.83;22.65;;;;;;;-2.61;78.50;101128.63;1682257;85;21089;-76
2021/04/10 03:21:33;;;;;;;52.03;24.43;;;;;;;-2.62;78.46;101129.47;1683164;85;21876;-75
2021/04/10 03:24:04;;;;;;;47.30;24.07;;;;;;;-2.62;78.70;101134.63;1675192;83;21138;-74
2021/04/10 03:26:33;;;;;;;47.17;22.02;;;;;;;-2.60;78.84;101130.36;1653319;84;21390;-72
2021/04/10 03:29:02;;;;;;;55.17;25.32;;;;;;;-2.59;78.87;101134.72;1666952;84;21111;-74
2021/04/10 03:31:33;;;;;;;46.08;22.40;;;;;;;-2.56;78.98;101139.96;1673332;84;21188;-73
2021/04/10 03:34:01;;;;;;;41.10;19.85;;;;;;;-2.55;78.71;101140.44;1679738;84;21158;-74
2021/04/10 03:36:29;;;;;;;38.30;18.60;;;;;;;-2.52;78.82;101140.53;1657888;84;21115;-72
2021/04/10 03:38:57;;;;;;;48.87;22.05;;;;;;;-2.46;78.93;101141.13;1650809;81;21415;-71
2021/04/10 03:41:26;;;;;;;49.45;23.45;;;;;;;-2.41;78.95;101144.75;1649980;86;21631;-75
2021/04/10 03:43:54;;;;;;;39.38;20.23;;;;;;;-2.37;78.72;101148.77;1629734;86;21157;-69
2021/04/10 03:46:23;;;;;;;52.08;23.42;;;;;;;-2.32;78.60;101140.75;1638684;86;21141;-68
2021/04/10 03:48:52;;;;;;;42.40;19.75;;;;;;;-2.24;78.69;101140.11;1639179;86;21109;-67
2021/04/10 03:51:22;;;;;;;53.05;22.32;;;;;;;-2.18;78.60;101146.77;1634406;86;21360;-70
2021/04/10 03:53:52;;;;;;;63.07;28.77;;;;;;;-2.07;78.90;101150.95;1674989;82;21463;-78
2021/04/10 03:56:21;;;;;;;54.23;25.48;;;;;;;-1.73;79.43;101146.38;1713326;82;21187;-79
2021/04/10 03:58:50;;;;;;;59.15;26.23;;;;;;;-1.21;78.90;101145.27;1714380;82;21117;-80
2021/04/10 04:01:19;;;;;;;61.83;26.82;;;;;;;-0.67;78.08;101141.09;1719208;82;21134;-78
2021/04/10 04:03:48;;;;;;;59.93;27.22;;;;;;;-0.13;76.04;101134.58;1709205;82;21480;-79
2021/04/10 04:06:16;;;;;;;53.05;27.05;;;;;;;0.41;75.15;101138.31;1722588;82;21112;-78
2021/04/10 04:08:45;;;;;;;60.73;28.05;;;;;;;0.96;73.65;101129.02;1717894;81;21176;-71
2021/04/10 04:11:13;;;;;;;65.55;27.17;;;;;;;1.50;71.86;101131.67;1702043;83;21524;-70
2021/04/10 04:13:42;;;;;;;59.40;27.30;;;;;;;2.01;70.21;101133.30;1692756;83;21181;-72
2021/04/10 04:16:10;;;;;;;75.20;28.15;;;;;;;2.51;68.53;101126.59;1706412;83;21382;-69
2021/04/10 04:18:38;;;;;;;57.78;27.22;;;;;;;3.02;67.09;101131.05;1710133;81;21130;-72
2021/04/10 04:21:06;;;;;;;54.80;27.73;;;;;;;3.46;65.66;101131.43;1712021;81;21163;-69
2021/04/10 04:23:34;;;;;;;66.05;30.30;;;;;;;3.93;64.16;101133.52;1685669;83;21123;-77
2021/04/10 04:26:03;;;;;;;67.53;32.28;;;;;;;4.42;63.25;101130.30;1654911;85;21198;-77
2021/04/10 04:28:34;;;;;;;73.90;33.63;;;;;;;4.90;61.42;101130.02;1662297;85;22307;-76
2021/04/10 04:31:02;;;;;;;;;;;;;;;5.37;59.54;101127.02;1645785;85;21567;-76
2021/04/10 04:33:30;;;;;;;65.87;31.10;;;;;;;5.81;58.20;101126.98;1654635;85;20234;-76
2021/04/10 04:35:58;;;;;;;70.10;33.75;;;;;;;6.21;55.16;101129.55;1651662;85;21593;-76
2021/04/10 04:38:26;;;;;;;64.37;31.95;;;;;;;6.65;53.56;101125.02;1645282;83;21167;-74
2021/04/10 04:40:54;;;;;;;65.67;31.60;;;;;;;7.05;51.29;101124.78;1624701;86;21721;-75
2021/04/10 04:43:22;;;;;;;61.18;31.00;;;;;;;7.36;49.53;101122.79;1619189;87;21190;-74
2021/04/10 04:45:50;;;;;;;63.83;30.30;;;;;;;7.72;48.54;101124.23;1624279;87;21612;-77
2021/04/10 04:48:17;;;;;;;51.20;26.20;;;;;;;8.08;46.65;101124.75;1622585;86;21134;-77
2021/04/10 04:50:46;;;;;;;42.60;23.77;;;;;;;8.32;44.77;101124.91;1635189;85;21143;-77
2021/04/10 04:53:14;;;;;;;46.05;23.18;;;;;;;8.54;44.21;101121.63;1695350;82;21200;-69
2021/04/10 04:55:42;;;;;;;43.87;24.72;;;;;;;8.81;43.76;101116.87;1710408;83;21124;-71
2021/04/10 04:58:10;;;;;;;44.10;22.22;;;;;;;9.00;43.25;101122.30;1713501;83;21111;-70
2021/04/10 05:00:38;;;;;;;37.23;20.62;;;;;;;9.29;42.51;101123.60;1702320;83;21116;-72
2021/04/10 05:03:06;;;;;;;32.33;18.60;;;;;;;9.50;40.70;101115.84;1702040;83;21149;-72
2021/04/10 05:05:35;;;;;;;29.02;17.95;;;;;;;9.67;39.74;101120.80;1703498;83;22163;-72
2021/04/10 05:08:03;;;;;;;25.00;16.23;;;;;;;9.76;39.10;101123.27;1705568;79;21438;-72
2021/04/10 05:10:33;;;;;;;32.45;17.52;;;;;;;9.89;38.85;101123.89;1703718;83;21144;-73
2021/04/10 05:13:01;;;;;;;27.15;16.17;;;;;;;9.94;38.25;101117.23;1705957;83;21091;-72
2021/04/10 05:15:29;;;;;;;30.10;17.23;;;;;;;10.03;37.29;101121.90;1694012;83;21157;-72
2021/04/10 05:17:57;;;;;;;32.48;19.12;;;;;;;10.22;37.36;101116.27;1698239;83;22210;-71
2021/04/10 05:20:25;;;;;;;26.95;16.15;;;;;;;10.31;37.77;101120.50;1703690;83;21134;-72
2021/04/10 05:22:54;;;;;;;29.45;15.25;;;;;;;10.41;36.67;101122.06;1695495;82;21065;-76
2021/04/10 05:25:22;;;;;;;27.50;16.57;;;;;;;10.39;36.39;101115.96;1690482;83;21091;-76
2021/04/10 05:27:51;;;;;;;26.15;15.40;;;;;;;10.26;37.24;101121.45;1687572;83;21567;-75
2021/04/10 05:30:20;;;;;;;25.08;15.28;;;;;;;10.37;36.69;101118.61;1684241;83;21326;-75
2021/04/10 05:32:48;;;;;;;29.92;16.90;;;;;;;10.62;36.77;101124.23;1694713;83;21124;-76
2021/04/10 05:35:17;;;;;;;29.37;15.50;;;;;;;10.94;36.87;101113.45;1700053;83;21176;-75
2021/04/10 05:38:06;;;;;;;27.15;15.53;;;;;;;11.30;36.58;101104.27;1703546;83;21939;-74
2021/04/10 05:40:35;;;;;;;22.67;13.20;;;;;;;11.53;36.42;101111.61;1572038;90;21162;-71
2021/04/10 05:43:03;;;;;;;30.15;15.60;;;;;;;11.76;36.07;101113.19;1567691;90;21411;-72
2021/04/10 05:45:31;;;;;;;23.35;14.80;;;;;;;11.95;36.43;101113.59;1560143;90;21201;-72
2021/04/10 05:48:03;;;;;;;25.00;13.62;;;;;;;12.12;34.56;101106.98;1578995;90;21158;-70
2021/04/10 05:50:33;;;;;;;26.70;14.90;;;;;;;12.11;34.46;101107.91;1567223;90;21638;-71
2021/04/10 05:53:01;;;;;;;22.90;14.33;;;;;;;12.22;33.93;101107.16;1552865;84;21201;-79
2021/04/10 05:55:28;;;;;;;20.72;12.53;;;;;;;12.49;33.27;101104.61;1591776;89;21418;-75
2021/04/10 05:57:56;;;;;;;28.23;15.00;;;;;;;12.87;32.82;101096.85;1603051;87;21663;-74
2021/04/10 06:00:25;;;;;;;22.67;14.85;;;;;;;13.16;32.77;101106.98;1601768;87;21976;-75
2021/04/10 06:02:54;;;;;;;26.50;14.90;;;;;;;13.49;32.39;101108.14;1606768;87;21157;-75
2021/04/10 06:05:22;;;;;;;24.85;13.00;;;;;;;13.66;31.77;101104.91;1615746;87;21571;-75
2021/04/10 06:07:50;;;;;;;20.27;12.53;;;;;;;13.88;31.43;101104.58;1607685;87;21605;-74
2021/04/10 06:10:19;;;;;;;15.50;10.32;;;;;;;13.93;30.23;101107.06;1625496;85;21548;-71
2021/04/10 06:12:47;;;;;;;18.37;10.63;;;;;;;13.83;30.83;101110.50;1639927;85;21080;-71
2021/04/10 06:15:19;;;;;;;15.20;9.55;;;;;;;13.89;29.54;101115.56;1635027;86;21551;-70
2021/04/10 06:17:46;;;;;;;17.57;11.03;;;;;;;13.88;29.60;101109.87;1645797;87;21132;-71
2021/04/10 06:20:16;;;;;;;16.62;9.53;;;;;;;13.82;30.15;101106.10;1658633;85;22261;-72
2021/04/10 06:22:44;;;;;;;17.02;10.13;;;;;;;13.97;29.50;101101.60;1631993;86;21106;-70
2021/04/10 06:25:13;;;;;;;13.03;8.43;;;;;;;14.14;29.19;101102.77;1642535;83;21129;-70
2021/04/10 06:27:41;;;;;;;12.65;7.83;;;;;;;14.02;27.95;101094.34;1643140;85;21122;-70
2021/04/10 06:30:10;;;;;;;16.00;8.05;;;;;;;13.53;27.03;101103.16;1646883;86;21177;-70
2021/04/10 06:32:38;;;;;;;11.08;7.33;;;;;;;13.39;27.41;101104.94;1645392;86;21402;-70
2021/04/10 06:35:07;;;;;;;15.53;7.53;;;;;;;13.33;27.49;101102.02;1645685;86;21609;-72
2021/04/10 06:37:35;;;;;;;13.43;8.30;;;;;;;13.22;28.21;101108.94;1644149;86;21182;-70
2021/04/10 06:40:06;;;;;;;16.60;7.87;;;;;;;13.33;28.09;101102.48;1697911;82;21146;-75
2021/04/10 06:42:34;;;;;;;;;;;;;;;13.41;27.32;101107.05;1717359;81;21114;-75
2021/04/10 06:45:05;;;;;;;12.20;7.62;;;;;;;13.36;27.81;101106.34;1722356;81;21492;-74
2021/04/10 06:47:34;;;;;;;12.15;8.40;;;;;;;13.22;27.08;101103.65;1723937;81;21874;-75
2021/04/10 06:50:05;;;;;;;12.53;7.75;;;;;;;13.37;27.56;101104.13;1709906;83;21130;-77
2021/04/10 06:52:41;;;;;;;11.60;6.87;;;;;;;13.57;26.99;101103.00;1732687;81;21611;-77
2021/04/10 06:55:13;;;;;;;10.15;6.60;;;;;;;13.61;26.50;101104.59;1645803;83;21265;-72
2021/04/10 06:58:01;;;;;;;;;;;;;;;13.43;27.74;101103.89;1622471;88;22141;-72
2021/04/10 07:00:29;;;;;;;8.40;5.83;;;;;;;13.28;26.46;101103.10;1619438;88;20212;-72
2021/04/10 07:03:00;;;;;;;9.35;6.50;;;;;;;13.08;26.25;101104.56;1618666;88;21568;-72
2021/04/10 07:05:28;;;;;;;13.90;7.12;;;;;;;13.07;26.82;101112.09;1618562;88;21126;-71
2021/04/10 07:07:56;;;;;;;10.10;6.58;;;;;;;13.23;26.86;101113.34;1636128;87;21140;-71
2021/04/10 07:10:25;;;;;;;12.47;6.45;;;;;;;13.34;26.10;101109.06;1657328;82;21213;-70
2021/04/10 07:12:53;;;;;;;13.35;6.85;;;;;;;13.37;26.20;101105.45;1600170;87;21144;-72
2021/04/10 07:15:23;;;;;;;9.73;6.33;;;;;;;13.33;26.35;101118.36;1604858;87;21571;-70
2021/04/10 07:17:55;;;;;;;11.55;7.28;;;;;;;13.44;25.55;101112.26;1604024;89;21627;-71
2021/04/10 07:20:29;;;;;;;10.45;6.25;;;;;;;13.61;25.74;101113.86;1607391;87;21234;-71
2021/04/10 07:23:05;;;;;;;9.55;6.22;;;;;;;13.43;25.48;101119.77;1621974;88;21430;-71
2021/04/10 07:25:35;;;;;;;13.78;7.12;;;;;;;13.28;26.54;101117.19;1669362;81;21127;-76
2021/04/10 07:28:28;;;;;;;15.75;6.80;;;;;;;13.53;26.51;101116.39;1702288;83;21147;-75
2021/04/10 07:31:04;;;;;;;11.75;6.70;;;;;;;13.56;25.49;101116.27;1692741;83;21115;-75
2021/04/10 07:33:37;;;;;;;11.12;6.97;;;;;;;13.67;25.58;101111.95;1703658;82;21145;-76
2021/04/10 07:36:08;;;;;;;17.70;6.75;;;;;;;13.89;25.91;101103.64;1711010;83;21370;-75
2021/04/10 07:38:43;;;;;;;11.07;6.23;;;;;;;14.28;25.79;101105.78;1714137;82;21125;-75
2021/04/10 07:41:18;;;;;;;10.72;6.92;;;;;;;14.29;24.71;101107.52;1534510;93;21173;-73
2021/04/10 07:43:46;;;;;;;11.25;6.62;;;;;;;14.06;25.20;101102.59;1534525;93;21599;-71
2021/04/10 07:46:25;;;;;;;12.47;6.35;;;;;;;14.15;25.57;101101.84;1536395;92;21163;-72
2021/04/10 07:49:12;;;;;;;14.15;6.65;;;;;;;14.31;25.30;101103.03;1557942;90;21851;-72
2021/04/10 07:51:54;;;;;;;14.65;7.25;;;;;;;14.53;25.46;101099.56;1557308;90;21262;-73
2021/04/10 07:54:30;;;;;;;21.27;7.45;;;;;;;14.61;25.15;101093.09;1559786;84;21132;-78
2021/04/10 07:57:03;;;;;;;13.20;6.90;;;;;;;14.85;24.68;101080.65;1668958;84;27355;-78
2021/04/10 07:59:35;;;;;;;12.73;6.62;;;;;;;14.97;24.64;101087.72;1648814;85;21513;-76
2021/04/10 08:02:12;;;;;;;13.58;7.35;;;;;;;14.89;24.34;101110.58;1646679;85;21229;-76
2021/04/10 08:04:41;;;;;;;14.23;6.83;;;;;;;14.83;24.37;101098.88;1649878;85;21178;-77
2021/04/10 08:07:12;;;;;;;12.60;6.97;;;;;;;14.82;24.16;101082.11;1648194;86;21117;-77
2021/04/10 08:09:40;;;;;;;12.47;6.78;;;;;;;14.90;23.63;101085.30;1673144;82;21090;-72
2021/04/10 08:12:11;;;;;;;13.03;6.90;;;;;;;14.92;23.74;101101.63;1714393;83;21514;-72
2021/04/10 08:14:44;;;;;;;11.83;6.08;;;;;;;14.93;24.20;101089.65;1714600;83;21516;-72
2021/04/10 08:17:32;;;;;;;14.85;6.17;;;;;;;15.03;24.01;101088.81;1714288;83;21106;-72
2021/04/10 08:20:27;;;;;;;14.05;6.25;;;;;;;14.94;22.91;101086.05;1714431;83;21090;-72
2021/04/10 08:23:21;;;;;;;10.03;5.17;;;;;;;15.18;23.54;101081.53;1714407;82;21026;-72
2021/04/10 08:25:49;;;;;;;13.38;6.70;;;;;;;15.27;22.08;101079.83;1730055;81;21128;-71
2021/04/10 08:28:18;;;;;;;16.15;6.37;;;;;;;14.90;22.85;101086.62;1738894;82;21195;-71
2021/04/10 08:30:48;;;;;;;18.20;7.20;;;;;;;14.46;24.48;101090.52;1725672;82;21158;-72
2021/04/10 08:33:16;;;;;;;10.10;6.08;;;;;;;14.35;24.80;101083.89;1691404;84;21119;-72
2021/04/10 08:35:44;;;;;;;12.20;6.33;;;;;;;14.57;25.89;101076.03;1676880;85;21120;-72
2021/04/10 08:38:12;;;;;;;10.30;6.17;;;;;;;14.86;23.69;101062.94;1670923;85;21133;-71
2021/04/10 08:40:40;;;;;;;8.35;5.70;;;;;;;14.88;23.56;101073.03;1627922;83;22227;-74
2021/04/10 08:43:10;;;;;;;11.08;6.12;;;;;;;14.95;23.39;101067.02;1630193;87;21200;-72
2021/04/10 08:45:38;;;;;;;12.93;6.60;;;;;;;15.03;23.87;101063.61;1678043;84;21135;-73
2021/04/10 08:48:09;;;;;;;12.20;5.58;;;;;;;14.83;23.45;101073.69;1674880;85;21108;-73
2021/04/10 08:50:38;;;;;;;13.80;6.42;;;;;;;14.74;23.98;101080.20;1616571;88;21562;-73
2021/04/10 08:53:10;;;;;;;19.40;7.62;;;;;;;14.59;23.43;101070.22;1657598;85;22074;-72
2021/04/10 08:55:38;;;;;;;8.93;6.05;;;;;;;14.58;23.78;101074.63;1697242;83;21120;-75
2021/04/10 08:58:31;;;;;;;13.50;6.75;;;;;;;14.94;23.17;101067.96;1728494;83;21116;-74
2021/04/10 09:01:02;;;;;;;12.68;7.08;;;;;;;14.97;23.40;101067.83;1648240;86;21179;-74
2021/04/10 09:03:49;;;;;;;11.78;6.28;;;;;;;15.16;23.49;101067.94;1710582;82;21116;-75
2021/04/10 09:06:35;;;;;;;8.60;5.75;;;;;;;15.21;22.68;101065.51;1708135;83;22275;-76
2021/04/10 09:09:18;;;;;;;10.32;6.58;;;;;;;14.71;22.95;101065.75;1712313;81;21681;31
2021/04/10 09:11:46;;;;;;;14.60;7.17;;;;;;;14.66;23.68;101067.73;1556557;91;21122;-71
2021/04/10 09:14:37;;;;;;;14.55;6.37;;;;;;;14.82;23.13;101057.38;1623475;88;21573;-71
2021/04/10 09:17:07;;;;;;;23.18;5.60;;;;;;;15.17;23.86;101059.06;1622766;88;21167;-70
2021/04/10 09:19:35;;;;;;;12.20;6.30;;;;;;;15.88;23.01;101053.81;1614744;87;21522;-70
2021/04/10 09:22:06;;;;;;;7.65;5.45;;;;;;;16.21;22.41;101057.67;1613580;87;21139;-78
2021/04/10 09:24:47;;;;;;;16.17;6.08;;;;;;;15.62;22.18;101065.99;1619462;84;21685;-74
2021/04/10 09:27:28;;;;;;;7.03;5.10;;;;;;;15.12;24.63;101060.58;1644878;86;21181;-73
2021/04/10 09:30:06;;;;;;;8.48;6.03;;;;;;;15.10;23.53;101053.14;1623373;87;21071;-73
2021/04/10 09:32:44;;;;;;;7.47;5.50;;;;;;;15.44;22.61;101059.70;1645545;86;22217;-73
2021/04/10 09:35:22;;;;;;;11.48;5.62;;;;;;;15.92;21.26;101046.11;1660560;86;21527;-75
2021/04/10 09:37:54;;;;;;;8.83;6.10;;;;;;;15.88;21.87;101048.97;1637307;86;21152;-73
2021/04/10 09:40:25;;;;;;;10.85;6.05;;;;;;;15.62;22.32;101057.59;1588879;84;21181;-74
2021/04/10 09:45:46;;;;;;;13.00;6.10;;;;;;;15.06;23.20;101046.23;1752539;79;23095;-73
2021/04/10 09:48:15;;;;;;;9.10;6.03;;;;;;;14.92;23.76;101041.95;1717239;83;21182;-73
2021/04/10 09:50:56;;;;;;;11.18;6.70;;;;;;;15.39;24.73;101039.11;1717350;83;22271;-72
2021/04/10 09:53:27;;;;;;;15.98;6.95;;;;;;;15.83;22.99;101035.90;1717804;83;21124;-72
2021/04/10 09:56:08;;;;;;;11.65;7.08;;;;;;;15.54;22.57;101035.80;1705519;80;21050;-71
2021/04/10 09:58:46;;;;;;;11.57;6.83;;;;;;;15.23;23.21;101039.78;1705120;82;21050;-71
2021/04/10 10:01:19;;;;;;;12.18;7.10;;;;;;;15.06;23.58;101038.27;1698955;83;21105;-70
2021/04/10 10:03:50;;;;;;;10.30;6.78;;;;;;;15.24;23.89;101034.00;1714287;83;21456;-71
2021/04/10 10:06:32;;;;;;;12.70;7.58;;;;;;;15.09;23.25;101028.84;1711335;83;21564;-70
2021/04/10 10:09:26;;;;;;;11.75;7.20;;;;;;;14.81;23.63;101028.66;1702255;82;21120;-72
2021/04/10 10:11:56;;;;;;;11.85;6.75;;;;;;;14.40;24.59;101028.49;1724527;83;21565;-71
2021/04/10 10:14:25;;;;;;;13.13;7.08;;;;;;;14.13;24.68;101040.14;1713979;82;21123;-72
2021/04/10 10:16:54;;;;;;;17.25;6.65;;;;;;;14.21;24.95;101027.45;1636411;85;21546;-72
2021/04/10 10:19:23;;;;;;;15.40;7.55;;;;;;;14.08;24.70;101027.50;1722772;82;21156;-73
2021/04/10 10:21:51;;;;;;;14.00;7.08;;;;;;;14.15;25.33;101030.32;1719847;83;21114;-71
2021/04/10 10:24:21;;;;;;;12.85;7.72;;;;;;;14.06;25.35;101028.44;1667878;80;21578;-75
2021/04/10 10:26:49;;;;;;;15.08;7.78;;;;;;;14.20;25.68;101012.49;1664642;85;21171;-75
2021/04/10 10:29:19;;;;;;;14.38;7.25;;;;;;;14.53;26.11;101014.75;1666429;86;21400;-76
2021/04/10 10:31:50;;;;;;;11.85;7.15;;;;;;;14.54;25.25;101013.81;1679635;84;21610;-74
2021/04/10 10:34:24;;;;;;;13.85;7.45;;;;;;;14.50;26.29;101018.86;1678845;84;26181;-75
2021/04/10 10:36:54;;;;;;;13.00;8.13;;;;;;;14.70;25.95;101020.30;1666158;86;21143;-73
2021/04/10 10:39:32;;;;;;;11.38;6.78;;;;;;;14.80;25.21;101013.68;1672729;80;21127;-69
2021/04/10 10:42:01;;;;;;;11.70;6.40;;;;;;;14.85;24.64;101010.37;1663646;85;22796;-72
2021/04/10 10:44:30;;;;;;;17.75;6.65;;;;;;;14.96;24.42;101017.05;1654179;85;21127;-71
2021/04/10 10:47:06;;;;;;;9.63;7.15;;;;;;;14.95;24.15;101012.65;1648992;86;21148;-70
2021/04/10 10:49:35;;;;;;;9.50;6.58;;;;;;;15.31;23.29;101003.14;1655720;86;21118;-70
2021/04/10 10:52:03;;;;;;;11.85;7.00;;;;;;;15.88;23.24;101003.81;1650319;85;21567;-70
2021/04/10 10:54:35;;;;;;;14.20;7.53;;;;;;;15.91;23.16;101004.52;1699987;80;21388;-70
2021/04/10 10:57:17;;;;;;;20.97;8.23;;;;;;;15.82;23.76;100999.63;1679296;83;21126;-70
2021/04/10 10:59:47;;;;;;;10.03;7.03;;;;;;;15.81;23.42;101005.88;1710005;82;21131;-70
2021/04/10 11:02:19;;;;;;;15.58;8.10;;;;;;;15.78;24.54;100995.84;1667722;84;21155;-69
2021/04/10 11:04:48;;;;;;;13.55;7.83;;;;;;;15.67;23.96;100987.88;1713335;82;21131;-69
2021/04/10 11:07:19;;;;;;;13.28;7.20;;;;;;;15.89;24.77;100981.63;1716781;82;21390;-70
2021/04/10 11:09:48;;;;;;;10.70;7.83;;;;;;;16.39;25.94;100981.06;1644853;84;21630;-69
2021/04/10 11:12:16;;;;;;;12.70;6.67;;;;;;;16.83;25.10;100975.41;1671348;84;21183;-70
2021/04/10 11:14:47;;;;;;;13.28;8.10;;;;;;;16.43;22.45;100982.65;1718467;82;21178;-68
2021/04/10 11:17:32;;;;;;;14.13;7.75;;;;;;;15.61;23.44;100982.83;1682230;84;21216;-69
2021/04/10 11:20:03;;;;;;;12.90;8.43;;;;;;;15.24;23.89;100990.22;1664491;80;21341;-77
2021/04/10 11:22:32;;;;;;;15.28;7.58;;;;;;;15.11;23.84;100983.23;1657561;84;21964;-76
2021/04/10 11:25:01;;;;;;;67.55;29.07;;;;;;;15.18;23.43;100971.42;1682570;84;21122;-76
2021/04/10 11:27:34;;;;;;;13.20;7.67;;;;;;;15.14;23.55;100967.20;1680271;84;21110;-74
2021/04/10 11:30:10;;;;;;;10.65;7.90;;;;;;;15.14;24.30;100972.51;1686359;84;21074;-78
2021/04/10 11:32:43;;;;;;;9.75;6.37;;;;;;;14.93;23.69;100966.76;1688289;84;21198;-75
2021/04/10 11:35:27;;;;;;;12.10;7.22;;;;;;;14.94;23.86;100961.88;1688623;81;21151;-70
2021/04/10 11:37:56;;;;;;;12.78;6.83;;;;;;;15.25;24.23;100954.34;1660216;86;21122;-72
2021/04/10 11:40:31;;;;;;;10.93;6.78;;;;;;;15.59;24.88;100951.50;1689383;85;21606;-70